Time;durP1;ratioP1;P1;durP2;ratioP2;P2;SDS_P1;SDS_P2;PMS_P1;PMS_P2;Temp;Humidity;BMP_temperature;BMP_pressure;BME280_temperature;BME280_humidity;BME280_pressure;Samples;Min_cycle;Max_cycle;Signal;HPM_P1;HPM_P2
2023/08/17 00:01:40;;;;;;;4.03;1.50;;;18.00;99.90;;;;;;5059650;28;20459;-40
2023/08/17 00:04:06;;;;;;;2.72;1.00;;;18.00;99.90;;;;;;5074796;28;20064;-40
2023/08/17 00:06:31;;;;;;;2.80;1.40;;;18.00;99.90;;;;;;5075034;28;20029;-51
2023/08/17 00:08:57;;;;;;;6.15;1.58;;;18.00;99.90;;;;;;5074556;28;20107;-52
2023/08/17 00:11:22;;;;;;;3.65;1.40;;;18.00;99.90;;;;;;5074622;28;20117;-52
2023/08/17 00:13:48;;;;;;;3.55;1.50;;;17.90;99.90;;;;;;5073905;28;20025;-52
2023/08/17 00:16:14;;;;;;;9.32;1.80;;;17.90;99.90;;;;;;5074501;28;20031;-51
2023/08/17 00:18:40;;;;;;;6.82;1.65;;;17.90;99.90;;;;;;5074368;28;20028;-50
2023/08/17 00:21:05;;;;;;;4.30;1.73;;;17.80;99.90;;;;;;5074737;28;20421;-50
2023/08/17 00:23:31;;;;;;;1.65;1.48;;;17.80;99.90;;;;;;5073572;28;20031;-48
2023/08/17 00:25:57;;;;;;;3.45;1.63;;;17.80;99.90;;;;;;5074511;28;20535;-53
2023/08/17 00:28:22;;;;;;;3.83;1.40;;;17.90;99.90;;;;;;5074256;28;20086;-48
2023/08/17 00:30:48;;;;;;;2.10;1.17;;;17.90;99.90;;;;;;5073396;28;20032;-51
2023/08/17 00:33:14;;;;;;;3.25;1.23;;;17.80;99.90;;;;;;5074517;28;20063;-52
2023/08/17 00:35:39;;;;;;;7.40;1.35;;;17.80;99.90;;;;;;5073891;28;20028;-48
2023/08/17 00:38:05;;;;;;;4.25;1.30;;;17.70;99.90;;;;;;5074397;28;20047;-72
2023/08/17 00:40:31;;;;;;;2.60;1.40;;;17.60;99.90;;;;;;5074123;28;20028;-50
2023/08/17 00:42:57;;;;;;;2.85;1.25;;;17.60;99.90;;;;;;5073966;28;20021;-48
2023/08/17 00:45:24;;;;;;;4.65;1.50;;;17.60;99.90;;;;;;5074151;28;20028;-52
2023/08/17 00:47:49;;;;;;;3.07;1.73;;;17.50;99.90;;;;;;5063414;28;20036;-52
2023/08/17 00:50:16;;;;;;;3.88;1.58;;;17.50;99.90;;;;;;5062652;28;20036;-53
2023/08/17 00:52:42;;;;;;;4.75;1.50;;;17.50;99.90;;;;;;5052021;28;20392;-50
2023/08/17 00:55:10;;;;;;;2.47;1.90;;;17.50;99.90;;;;;;5073645;28;20451;-50
2023/08/17 00:57:36;;;;;;;1.38;1.30;;;17.50;99.90;;;;;;5059427;28;20448;-51
2023/08/17 01:00:04;;;;;;;4.70;1.55;;;17.50;99.90;;;;;;5053083;28;20033;-48
2023/08/17 01:02:30;;;;;;;3.72;1.33;;;17.50;99.90;;;;;;5053400;28;20094;-52
2023/08/17 01:04:56;;;;;;;1.83;1.10;;;17.60;99.90;;;;;;5064833;28;20538;-52
2023/08/17 01:07:22;;;;;;;3.22;1.52;;;17.60;99.90;;;;;;5073296;28;20028;-50
2023/08/17 01:09:47;;;;;;;1.95;1.40;;;17.50;99.90;;;;;;5073432;28;20413;-42
2023/08/17 01:12:33;;;;;;;3.00;1.35;;;17.50;99.90;;;;;;5071587;28;20064;-39
2023/08/17 01:15:14;;;;;;;5.95;1.52;;;17.30;99.90;;;;;;5072421;28;20128;-51
2023/08/17 01:17:47;;;;;;;4.50;1.60;;;17.30;99.90;;;;;;5072558;28;20028;-38
2023/08/17 01:20:14;;;;;;;2.42;1.10;;;17.30;99.90;;;;;;5071550;28;20021;-39
2023/08/17 01:22:48;;;;;;;1.23;1.13;;;17.30;99.90;;;;;;5068970;28;20391;-48
2023/08/17 01:25:14;;;;;;;1.88;1.25;;;17.20;99.90;;;;;;5073073;28;20044;-48
2023/08/17 01:27:41;;;;;;;6.35;1.42;;;17.10;99.90;;;;;;5072188;28;20028;-52
2023/08/17 01:30:09;;;;;;;1.85;1.50;;;17.10;99.90;;;;;;5071606;28;20464;-52
2023/08/17 01:32:48;;;;;;;2.92;1.63;;;17.20;99.90;;;;;;5073172;28;20489;-51
2023/08/17 01:35:32;;;;;;;2.30;1.00;;;17.10;99.90;;;;;;5073071;28;20036;-48
2023/08/17 01:37:59;;;;;;;8.02;2.53;;;17.10;99.90;;;;;;5072443;28;20107;-52
2023/08/17 01:40:28;;;;;;;;;;;17.00;99.90;;;;;;5073482;28;20024;-51
2023/08/17 01:42:55;;;;;;;1.15;1.05;;;17.00;99.90;;;;;;5073286;28;19931;-51
2023/08/17 01:45:21;;;;;;;3.28;1.38;;;17.00;99.90;;;;;;5072969;28;20097;-50
2023/08/17 01:47:48;;;;;;;3.95;1.77;;;17.00;99.90;;;;;;5072816;28;20036;-47
2023/08/17 01:50:14;;;;;;;2.88;2.15;;;17.00;99.90;;;;;;5073007;28;20552;-60
2023/08/17 01:52:39;;;;;;;5.93;1.83;;;16.90;99.90;;;;;;5072871;28;20111;-53
2023/08/17 01:55:06;;;;;;;2.03;1.40;;;16.90;99.90;;;;;;5068333;28;20132;-51
2023/08/17 01:57:31;;;;;;;2.42;1.35;;;16.80;99.90;;;;;;5052813;28;20021;-51
2023/08/17 01:59:57;;;;;;;6.45;1.80;;;16.80;99.90;;;;;;5052815;28;20481;-51
2023/08/17 02:02:23;;;;;;;6.50;1.70;;;16.90;99.90;;;;;;5052816;28;20051;-47
2023/08/17 02:04:48;;;;;;;7.75;1.88;;;16.90;99.90;;;;;;5052831;28;20209;-50
2023/08/17 02:07:14;;;;;;;6.13;2.40;;;16.90;99.90;;;;;;5052732;28;20517;-52
2023/08/17 02:09:40;;;;;;;9.50;1.40;;;16.80;99.90;;;;;;5071757;28;20032;-51
2023/08/17 02:12:06;;;;;;;3.90;1.20;;;16.90;99.90;;;;;;5072029;28;20028;-52
2023/08/17 02:14:31;;;;;;;2.30;1.33;;;16.90;99.90;;;;;;5072659;28;20103;-51
2023/08/17 02:16:57;;;;;;;2.75;1.88;;;16.90;99.90;;;;;;5072609;28;20194;-48
2023/08/17 02:19:23;;;;;;;4.80;1.92;;;16.90;99.90;;;;;;5072666;28;20029;-51
2023/08/17 02:21:48;;;;;;;3.60;1.40;;;16.90;99.90;;;;;;5072632;28;20028;-53
2023/08/17 02:24:14;;;;;;;2.80;1.50;;;16.80;99.90;;;;;;5060537;28;20382;-51
2023/08/17 02:26:40;;;;;;;2.85;1.70;;;16.80;99.90;;;;;;5052547;28;20037;-50
2023/08/17 02:29:05;;;;;;;4.60;1.75;;;16.80;99.90;;;;;;5057134;28;20024;-49
2023/08/17 02:31:31;;;;;;;5.85;1.90;;;16.80;99.90;;;;;;5070533;28;20465;-49
2023/08/17 02:34:00;;;;;;;9.20;2.33;;;16.80;99.90;;;;;;5072386;28;20043;-51
2023/08/17 02:36:27;;;;;;;3.70;1.38;;;16.90;99.90;;;;;;5070817;28;20024;-50
2023/08/17 02:38:53;;;;;;;2.10;1.60;;;16.90;99.90;;;;;;5071359;28;20086;-50
2023/08/17 02:41:18;;;;;;;3.92;1.55;;;16.90;99.90;;;;;;5072469;28;20100;-39
2023/08/17 02:43:44;;;;;;;2.85;1.67;;;16.80;99.90;;;;;;5071587;28;20128;-40
2023/08/17 02:46:10;;;;;;;1.58;1.48;;;16.80;99.90;;;;;;5071667;28;20538;-41
2023/08/17 02:48:36;;;;;;;7.45;1.52;;;16.80;99.90;;;;;;5072504;28;20369;-45
2023/08/17 02:51:02;;;;;;;2.53;1.88;;;16.80;99.90;;;;;;5072388;28;20108;-44
2023/08/17 02:53:27;;;;;;;5.15;2.03;;;16.80;99.90;;;;;;5072396;28;20030;-44
2023/08/17 02:55:53;;;;;;;4.20;1.92;;;16.70;99.90;;;;;;5072033;28;20045;-52
2023/08/17 02:58:19;;;;;;;3.53;1.80;;;16.70;99.90;;;;;;5072300;28;20052;-49
2023/08/17 03:00:45;;;;;;;8.38;2.30;;;16.70;99.90;;;;;;5072463;28;20033;-41
2023/08/17 03:03:10;;;;;;;6.07;1.58;;;16.70;99.90;;;;;;5054425;28;20025;-41
2023/08/17 03:05:36;;;;;;;5.05;2.10;;;16.70;99.90;;;;;;5070513;28;20025;-46
2023/08/17 03:08:02;;;;;;;5.15;2.20;;;16.80;99.90;;;;;;5070084;28;20021;-39
2023/08/17 03:10:29;;;;;;;3.75;1.88;;;16.80;99.90;;;;;;5067776;28;20021;-39
2023/08/17 03:12:54;;;;;;;4.88;2.35;;;16.70;99.90;;;;;;5070556;28;20031;-51
2023/08/17 03:15:20;;;;;;;4.80;1.63;;;16.70;99.90;;;;;;5071163;28;20465;-40
2023/08/17 03:17:46;;;;;;;2.85;1.40;;;16.70;99.90;;;;;;5072031;28;20111;-41
2023/08/17 03:20:11;;;;;;;4.72;1.63;;;16.70;99.90;;;;;;5036495;28;20108;-40
2023/08/17 03:22:37;;;;;;;3.85;1.60;;;16.70;99.90;;;;;;5050157;28;20124;-43
2023/08/17 03:25:03;;;;;;;9.82;1.83;;;16.80;99.90;;;;;;5068995;28;20024;-39
2023/08/17 03:27:29;;;;;;;3.13;1.50;;;16.70;99.90;;;;;;5074605;28;20041;-40
2023/08/17 03:29:54;;;;;;;6.38;1.73;;;16.70;99.90;;;;;;5074764;28;20031;-41
2023/08/17 03:32:20;;;;;;;6.55;1.90;;;16.70;99.90;;;;;;5032666;28;20025;-40
2023/08/17 03:34:46;;;;;;;4.40;1.60;;;16.70;99.90;;;;;;5066625;28;20032;-43
2023/08/17 03:37:11;;;;;;;2.45;1.67;;;16.60;99.90;;;;;;5055943;28;20473;-40
2023/08/17 03:39:37;;;;;;;2.67;1.90;;;16.60;99.90;;;;;;5073588;28;20021;-43
2023/08/17 03:42:03;;;;;;;5.72;1.88;;;16.60;99.90;;;;;;5074314;28;20103;-43
2023/08/17 03:44:29;;;;;;;5.45;1.65;;;16.50;99.90;;;;;;5073616;28;20028;-40
2023/08/17 03:46:54;;;;;;;6.70;1.40;;;16.50;99.90;;;;;;5073275;28;20086;-45
2023/08/17 03:49:20;;;;;;;3.28;1.48;;;16.50;99.90;;;;;;5073683;28;20056;-43
2023/08/17 03:51:46;;;;;;;4.97;1.70;;;16.60;99.90;;;;;;5068041;28;20020;-54
2023/08/17 03:54:12;;;;;;;11.95;2.30;;;16.60;99.90;;;;;;5072961;28;20029;-40
2023/08/17 03:56:38;;;;;;;10.57;1.88;;;16.60;99.90;;;;;;5074422;28;20508;-42
2023/08/17 03:59:04;;;;;;;4.10;1.70;;;16.60;99.90;;;;;;5075260;28;20033;-41
2023/08/17 04:01:29;;;;;;;2.28;1.55;;;16.60;99.90;;;;;;5074840;28;20492;-40
2023/08/17 04:03:55;;;;;;;5.10;1.52;;;16.60;99.90;;;;;;5074872;28;20029;-39
2023/08/17 04:06:21;;;;;;;5.60;1.75;;;16.60;99.90;;;;;;5074825;28;20032;-41
2023/08/17 04:08:47;;;;;;;4.47;1.50;;;16.70;99.90;;;;;;5074718;28;20054;-40
2023/08/17 04:11:12;;;;;;;5.07;2.25;;;16.70;99.90;;;;;;5069116;28;20032;-40
2023/08/17 04:13:38;;;;;;;3.22;1.27;;;16.70;99.90;;;;;;5068139;28;20033;-41
2023/08/17 04:16:04;;;;;;;3.78;2.17;;;16.70;99.90;;;;;;5074901;28;20476;-40
2023/08/17 04:18:29;;;;;;;6.15;1.52;;;16.70;99.90;;;;;;5074660;28;20473;-40
2023/08/17 04:20:55;;;;;;;3.53;1.13;;;16.70;99.90;;;;;;5074550;28;20032;-40
2023/08/17 04:23:21;;;;;;;7.60;1.80;;;16.70;99.90;;;;;;5074481;28;20544;-41
2023/08/17 04:25:47;;;;;;;2.13;1.20;;;16.80;99.90;;;;;;5074396;28;20083;-40
2023/08/17 04:28:13;;;;;;;4.28;1.40;;;16.70;99.90;;;;;;5068931;28;20028;-45
2023/08/17 04:30:39;;;;;;;5.32;1.35;;;16.70;99.90;;;;;;5054346;28;20032;-40
2023/08/17 04:33:05;;;;;;;5.00;1.13;;;16.80;99.90;;;;;;5054317;28;20049;-47
2023/08/17 04:35:30;;;;;;;3.22;1.40;;;16.80;99.90;;;;;;5054296;28;20034;-40
2023/08/17 04:37:56;;;;;;;9.45;1.85;;;16.80;99.90;;;;;;5054132;28;20021;-41
2023/08/17 04:40:22;;;;;;;4.18;1.23;;;16.80;99.90;;;;;;5054116;28;20118;-39
2023/08/17 04:42:47;;;;;;;3.50;2.03;;;16.80;99.90;;;;;;5054093;28;20384;-47
2023/08/17 04:45:13;;;;;;;2.55;1.13;;;16.70;99.90;;;;;;5054511;28;20028;-40
2023/08/17 04:47:39;;;;;;;3.50;1.85;;;16.70;99.90;;;;;;5054009;28;20032;-42
2023/08/17 04:50:06;;;;;;;1.85;1.25;;;16.70;99.90;;;;;;5066751;28;20500;-41
2023/08/17 04:52:31;;;;;;;3.85;1.45;;;16.70;99.90;;;;;;5073876;28;20051;-53
2023/08/17 04:54:57;;;;;;;4.20;1.90;;;16.70;99.90;;;;;;5073855;28;20032;-53
2023/08/17 04:57:23;;;;;;;10.35;1.50;;;16.70;99.90;;;;;;5072564;28;20032;-49
2023/08/17 04:59:48;;;;;;;9.85;1.77;;;16.70;99.90;;;;;;5073684;28;20511;-49
2023/08/17 05:02:14;;;;;;;4.57;2.15;;;16.70;99.90;;;;;;5072892;28;20424;-51
2023/08/17 05:04:39;;;;;;;6.25;1.02;;;16.70;99.90;;;;;;5073933;28;20421;-53
2023/08/17 05:07:08;;;;;;;7.13;1.77;;;16.80;99.90;;;;;;5070558;28;20021;-49
2023/08/17 05:09:34;;;;;;;5.10;1.05;;;16.80;99.90;;;;;;5053401;28;20028;-47
2023/08/17 05:12:00;;;;;;;3.97;1.10;;;16.70;99.90;;;;;;5070770;28;20032;-48
2023/08/17 05:14:25;;;;;;;2.58;1.25;;;16.60;99.90;;;;;;5072442;28;20552;-50
2023/08/17 05:16:51;;;;;;;2.33;1.40;;;16.60;99.90;;;;;;5070711;28;20024;-49
2023/08/17 05:19:17;;;;;;;1.45;1.02;;;16.60;99.90;;;;;;5072423;28;20070;-51
2023/08/17 05:21:42;;;;;;;10.05;1.25;;;16.60;99.90;;;;;;5072193;28;20078;-50
2023/08/17 05:24:08;;;;;;;3.75;1.48;;;16.70;99.90;;;;;;5073242;28;20031;-49
2023/08/17 05:26:34;;;;;;;4.75;1.42;;;16.70;99.90;;;;;;5053507;28;20090;-52
2023/08/17 05:28:59;;;;;;;3.00;1.15;;;16.70;99.90;;;;;;5071259;28;20035;-52
2023/08/17 05:31:25;;;;;;;2.58;1.60;;;16.70;99.90;;;;;;5047952;28;20059;-50
2023/08/17 05:33:51;;;;;;;4.63;1.33;;;16.70;99.90;;;;;;5053136;28;20469;-74
2023/08/17 05:36:17;;;;;;;4.60;1.55;;;16.80;99.90;;;;;;5065210;28;20459;-50
2023/08/17 05:38:43;;;;;;;4.80;1.55;;;16.80;99.90;;;;;;5073167;28;20021;-49
2023/08/17 05:41:09;;;;;;;5.90;1.10;;;16.70;99.90;;;;;;5072958;28;20064;-52
2023/08/17 05:43:34;;;;;;;6.15;1.35;;;16.80;99.90;;;;;;5072040;28;20023;-49
2023/08/17 05:46:00;;;;;;;3.05;2.17;;;16.80;99.90;;;;;;5072164;28;20473;-51
2023/08/17 05:48:26;;;;;;;1.13;1.10;;;16.80;99.90;;;;;;5072808;28;20020;-48
2023/08/17 05:50:51;;;;;;;8.95;2.30;;;16.90;99.90;;;;;;5072880;28;20479;-45
2023/08/17 05:53:17;;;;;;;4.55;1.58;;;17.00;99.90;;;;;;5066719;28;20082;-51
2023/08/17 05:55:43;;;;;;;2.65;1.40;;;17.00;99.90;;;;;;5057610;28;20516;-48
2023/08/17 05:58:08;;;;;;;6.32;1.50;;;17.10;99.90;;;;;;5072839;28;20032;-47
2023/08/17 06:00:35;;;;;;;4.20;1.67;;;17.00;99.90;;;;;;5072650;28;20473;-48
2023/08/17 06:03:01;;;;;;;6.28;1.30;;;17.00;99.90;;;;;;5054813;28;20024;-50
2023/08/17 06:05:30;;;;;;;1.95;1.23;;;17.00;99.90;;;;;;5072742;28;20095;-51
2023/08/17 06:07:59;;;;;;;4.95;1.30;;;17.10;99.90;;;;;;5072648;28;20024;-47
2023/08/17 06:10:25;;;;;;;2.33;1.13;;;17.20;99.90;;;;;;5065558;28;20024;-52
2023/08/17 06:12:55;;;;;;;5.65;1.60;;;17.20;99.90;;;;;;5052872;28;20044;-50
2023/08/17 06:15:21;;;;;;;3.85;1.67;;;17.20;99.90;;;;;;5053205;28;20036;-47
2023/08/17 06:17:57;;;;;;;2.78;1.45;;;17.30;99.90;;;;;;5053394;28;20040;-49
2023/08/17 06:20:22;;;;;;;3.65;1.27;;;17.30;99.90;;;;;;5054745;28;20381;-48
2023/08/17 06:23:22;;;;;;;5.30;1.80;;;17.30;99.90;;;;;;5053344;28;20036;-51
2023/08/17 06:25:48;;;;;;;11.48;1.70;;;17.30;99.90;;;;;;5052627;28;20021;-50
2023/08/17 06:28:14;;;;;;;6.50;1.58;;;17.30;99.90;;;;;;5053433;28;20028;-46
2023/08/17 06:30:39;;;;;;;6.40;2.05;;;17.30;99.90;;;;;;5053789;28;20021;-51
2023/08/17 06:33:05;;;;;;;1.25;1.10;;;17.30;99.90;;;;;;5051577;28;20516;-51
2023/08/17 06:35:31;;;;;;;2.90;1.42;;;17.30;99.90;;;;;;5065396;28;20055;-48
2023/08/17 06:37:57;;;;;;;3.63;1.33;;;17.40;99.90;;;;;;5059442;28;20029;-49
2023/08/17 06:40:27;;;;;;;2.55;1.77;;;17.30;99.90;;;;;;5053681;28;20049;-39
2023/08/17 06:42:54;;;;;;;6.00;1.50;;;17.30;99.90;;;;;;5054200;28;20501;-60
2023/08/17 06:45:20;;;;;;;4.67;1.40;;;17.40;99.90;;;;;;5071222;28;20013;-41
2023/08/17 06:47:48;;;;;;;4.03;1.67;;;17.40;99.90;;;;;;5071483;28;20353;-40
2023/08/17 06:50:14;;;;;;;8.07;1.58;;;17.40;99.90;;;;;;5048033;28;20032;-39
2023/08/17 06:52:40;;;;;;;4.78;1.95;;;17.30;99.90;;;;;;5071060;28;20059;-54
2023/08/17 06:55:06;;;;;;;6.93;2.08;;;17.40;99.90;;;;;;5049479;28;21571;-40
2023/08/17 06:57:32;;;;;;;5.50;1.98;;;17.40;99.90;;;;;;5075677;28;20169;-41
2023/08/17 06:59:57;;;;;;;8.55;1.90;;;17.50;99.90;;;;;;5075920;28;20504;-38
2023/08/17 07:02:23;;;;;;;4.47;2.08;;;17.40;99.90;;;;;;5076034;28;20024;-38
2023/08/17 07:04:48;;;;;;;2.40;1.60;;;17.50;99.90;;;;;;5075876;28;20060;-40
2023/08/17 07:07:14;;;;;;;6.65;2.15;;;17.50;99.90;;;;;;5075754;28;20115;-38
2023/08/17 07:09:40;;;;;;;6.68;2.08;;;17.60;99.90;;;;;;5075402;28;20024;-38
2023/08/17 07:12:06;;;;;;;2.55;1.88;;;17.70;99.90;;;;;;5074390;28;20028;-38
2023/08/17 07:14:33;;;;;;;2.80;1.50;;;17.80;99.90;;;;;;5076006;28;20393;-38
2023/08/17 07:16:59;;;;;;;5.85;1.52;;;17.90;99.90;;;;;;5075859;28;20119;-38
2023/08/17 07:19:25;;;;;;;8.50;2.00;;;18.00;99.90;;;;;;5060326;28;20053;-41
2023/08/17 07:21:51;;;;;;;4.72;1.73;;;18.10;99.90;;;;;;5056023;28;20485;-39
2023/08/17 07:24:17;;;;;;;6.13;1.50;;;18.20;99.90;;;;;;5075286;28;20031;-41
2023/08/17 07:26:43;;;;;;;2.95;1.50;;;18.30;99.90;;;;;;5074670;28;20047;-38
2023/08/17 07:29:08;;;;;;;10.68;2.58;;;18.40;99.90;;;;;;5052486;28;20120;-39
2023/08/17 07:31:37;;;;;;;7.35;2.83;;;18.40;99.90;;;;;;5055464;28;20025;-47
2023/08/17 07:34:06;;;;;;;3.53;1.60;;;18.50;99.90;;;;;;5067035;28;20511;-41
2023/08/17 07:36:32;;;;;;;5.63;1.80;;;18.40;99.90;;;;;;5058603;28;20063;-50
2023/08/17 07:38:58;;;;;;;4.00;1.73;;;18.40;99.90;;;;;;5055600;28;20074;-38
2023/08/17 07:41:24;;;;;;;5.13;1.60;;;18.40;99.90;;;;;;5066690;28;20082;-39
2023/08/17 07:43:50;;;;;;;5.35;2.28;;;18.40;99.90;;;;;;5057443;28;20025;-38
2023/08/17 07:46:16;;;;;;;7.90;1.88;;;18.40;99.90;;;;;;5075105;28;20035;-44
2023/08/17 07:48:41;;;;;;;4.03;1.70;;;18.40;99.90;;;;;;5075093;28;20029;-39
2023/08/17 07:51:07;;;;;;;4.05;1.92;;;18.50;99.90;;;;;;5069242;28;20053;-38
2023/08/17 07:53:33;;;;;;;6.47;2.05;;;18.50;99.90;;;;;;5055554;28;20105;-38
2023/08/17 07:55:58;;;;;;;9.40;2.00;;;18.50;99.90;;;;;;5063598;28;20139;-39
2023/08/17 07:58:24;;;;;;;4.78;2.13;;;18.70;99.90;;;;;;5071575;28;20033;-50
2023/08/17 08:00:50;;;;;;;2.90;1.30;;;18.80;99.90;;;;;;5073459;28;20037;-47
2023/08/17 08:03:15;;;;;;;6.60;1.70;;;19.00;99.90;;;;;;5073587;28;20036;-50
2023/08/17 08:05:41;;;;;;;4.97;1.20;;;19.10;99.90;;;;;;5074702;28;20515;-48
2023/08/17 08:08:07;;;;;;;2.85;1.52;;;19.30;99.90;;;;;;5074081;28;20016;-46
2023/08/17 08:10:32;;;;;;;5.28;1.65;;;19.40;99.90;;;;;;5072585;28;20104;-46
2023/08/17 08:12:58;;;;;;;3.75;1.58;;;19.60;99.90;;;;;;5073477;28;20483;-53
2023/08/17 08:15:24;;;;;;;7.25;1.70;;;19.80;99.90;;;;;;5073816;28;20016;-51
2023/08/17 08:17:49;;;;;;;7.13;2.08;;;20.00;99.90;;;;;;5074401;28;20116;-49
2023/08/17 08:20:15;;;;;;;1.45;1.00;;;20.10;99.90;;;;;;5049938;28;20374;-50
2023/08/17 08:22:40;;;;;;;6.97;1.10;;;20.20;99.90;;;;;;5054467;28;20039;-50
2023/08/17 08:25:06;;;;;;;3.47;1.20;;;20.20;99.90;;;;;;5054447;28;20025;-50
2023/08/17 08:27:32;;;;;;;2.60;1.55;;;20.30;99.90;;;;;;5054946;28;20366;-49
2023/08/17 08:29:58;;;;;;;4.45;2.08;;;20.50;99.90;;;;;;5056050;28;20028;-48
2023/08/17 08:32:23;;;;;;;3.90;1.50;;;20.60;99.90;;;;;;5072193;28;20039;-46
2023/08/17 08:34:49;;;;;;;3.20;1.27;;;20.40;99.90;;;;;;5068444;28;20031;-51
2023/08/17 08:37:15;;;;;;;2.88;0.88;;;20.30;99.90;;;;;;5064723;28;20516;-48
2023/08/17 08:39:54;;;;;;;4.93;1.85;;;20.40;99.90;;;;;;5072435;28;20024;-50
2023/08/17 08:42:22;;;;;;;2.70;1.40;;;20.30;99.90;;;;;;5072816;28;20063;-52
2023/08/17 08:44:48;;;;;;;2.53;1.15;;;20.40;99.90;;;;;;5072977;28;20508;-48
2023/08/17 08:47:16;;;;;;;5.65;1.58;;;20.60;99.90;;;;;;5073182;28;20025;-50
2023/08/17 08:49:58;;;;;;;3.78;1.30;;;20.70;99.90;;;;;;5062431;28;20032;-50
2023/08/17 08:52:48;;;;;;;4.43;1.58;;;20.90;99.90;;;;;;5068905;28;20020;-51
2023/08/17 08:55:18;;;;;;;2.35;1.05;;;21.10;99.90;;;;;;5039105;28;20397;-48
2023/08/17 08:57:45;;;;;;;2.20;1.13;;;21.10;99.90;;;;;;5059300;28;20539;-50
2023/08/17 09:00:12;;;;;;;10.60;1.73;;;21.30;99.90;;;;;;5072977;28;20366;-48
2023/08/17 09:02:38;;;;;;;4.75;1.38;;;21.60;99.90;;;;;;5072753;28;20473;-51
2023/08/17 09:05:06;;;;;;;2.88;1.00;;;21.60;99.90;;;;;;5069140;28;20031;-52
2023/08/17 09:07:33;;;;;;;2.58;1.13;;;21.50;99.90;;;;;;5067624;28;20060;-49
2023/08/17 09:09:59;;;;;;;4.73;1.17;;;21.30;99.90;;;;;;5070663;28;20043;-49
2023/08/17 09:12:25;;;;;;;5.50;1.25;;;21.30;99.90;;;;;;5068968;28;20548;-50
2023/08/17 09:14:51;;;;;;;9.00;1.15;;;21.00;99.90;;;;;;5068912;28;20077;-51
2023/08/17 09:17:24;;;;;;;9.00;1.30;;;21.20;99.90;;;;;;5049612;28;20423;-50
2023/08/17 09:19:50;;;;;;;2.53;1.20;;;21.20;99.90;;;;;;5068343;28;20024;-47
2023/08/17 09:22:26;;;;;;;8.13;1.20;;;21.30;99.90;;;;;;5070250;28;20021;-51
2023/08/17 09:24:52;;;;;;;4.63;1.38;;;21.90;99.90;;;;;;5053756;28;20024;-52
2023/08/17 09:27:17;;;;;;;3.13;0.95;;;21.90;99.90;;;;;;5063575;28;20426;-51
2023/08/17 09:29:45;;;;;;;3.03;1.88;;;21.90;99.90;;;;;;5068394;28;20028;-52
2023/08/17 09:32:14;;;;;;;1.70;1.02;;;21.90;99.90;;;;;;5071359;28;20024;-47
2023/08/17 09:34:42;;;;;;;6.10;1.15;;;21.90;99.90;;;;;;5068496;28;20028;-51
2023/08/17 09:37:08;;;;;;;3.88;1.40;;;21.80;99.90;;;;;;5065976;28;20132;-47
2023/08/17 09:39:34;;;;;;;7.47;1.70;;;21.40;99.90;;;;;;5071498;28;20099;-49
2023/08/17 09:42:00;;;;;;;2.88;1.42;;;21.20;99.90;;;;;;5067974;28;20111;-51
2023/08/17 09:44:26;;;;;;;5.65;1.58;;;21.00;99.90;;;;;;5068930;28;20040;-52
2023/08/17 09:46:55;;;;;;;5.18;1.38;;;20.90;99.90;;;;;;5070668;28;20033;-51
2023/08/17 09:49:24;;;;;;;2.10;1.35;;;20.60;99.90;;;;;;5071517;28;20024;-50
2023/08/17 09:51:52;;;;;;;5.95;1.55;;;20.80;99.90;;;;;;5064789;28;20173;-52
2023/08/17 09:54:23;;;;;;;7.70;1.45;;;20.90;99.90;;;;;;5071771;28;20036;-68
2023/08/17 09:56:51;;;;;;;3.70;1.13;;;20.80;99.90;;;;;;5064287;28;20045;-68
2023/08/17 09:59:17;;;;;;;2.60;1.55;;;20.80;99.90;;;;;;5045547;28;20063;-53
2023/08/17 10:01:43;;;;;;;2.55;1.30;;;20.80;99.90;;;;;;5056624;28;20056;-47
2023/08/17 10:04:11;;;;;;;20.55;1.67;;;21.00;99.90;;;;;;5072691;28;20040;-47
2023/08/17 10:06:41;;;;;;;1.00;0.90;;;21.50;99.90;;;;;;5072716;28;20031;-49
2023/08/17 10:09:08;;;;;;;1.95;1.25;;;22.00;99.90;;;;;;5072136;28;20035;-52
2023/08/17 10:11:38;;;;;;;5.38;1.63;;;22.10;99.90;;;;;;5072698;28;20033;-49
2023/08/17 10:14:17;;;;;;;3.55;1.45;;;21.90;99.90;;;;;;5072671;28;20028;-52
2023/08/17 10:16:49;;;;;;;6.07;1.52;;;21.50;99.90;;;;;;5072651;28;20035;-49
2023/08/17 10:19:51;;;;;;;4.68;1.50;;;21.50;99.90;;;;;;5038200;28;20025;-54
2023/08/17 10:22:38;;;;;;;2.30;1.73;;;21.70;99.90;;;;;;5069998;28;20495;-50
2023/08/17 10:25:05;;;;;;;4.57;1.42;;;22.10;99.90;;;;;;5066733;28;20029;-50
2023/08/17 10:27:34;;;;;;;7.68;1.65;;;22.20;99.90;;;;;;5067912;28;20036;-54
2023/08/17 10:30:01;;;;;;;3.80;1.88;;;22.20;99.90;;;;;;5070902;28;20536;-62
2023/08/17 10:32:28;;;;;;;3.17;1.67;;;21.90;99.90;;;;;;5075717;28;20039;-58
2023/08/17 10:34:54;;;;;;;6.05;2.55;;;21.70;99.90;;;;;;5066764;28;20039;-44
2023/08/17 10:37:23;;;;;;;3.80;2.10;;;21.40;99.90;;;;;;5058358;28;20472;-52
2023/08/17 10:39:49;;;;;;;7.18;2.22;;;21.40;99.90;;;;;;5076326;28;20044;-50
2023/08/17 10:42:16;;;;;;;13.52;1.98;;;21.40;99.90;;;;;;5070259;28;20474;-47
2023/08/17 10:44:48;;;;;;;6.32;2.53;;;21.30;99.90;;;;;;5056623;28;20380;-49
2023/08/17 10:47:32;;;;;;;4.65;2.42;;;21.20;99.90;;;;;;5057842;28;20056;-52
2023/08/17 10:50:03;;;;;;;2.78;1.80;;;21.20;99.90;;;;;;5076258;28;20032;-51
2023/08/17 10:52:37;;;;;;;7.43;1.98;;;21.30;99.90;;;;;;5076397;28;20029;-49
2023/08/17 10:55:09;;;;;;;3.95;2.22;;;21.30;99.90;;;;;;5075856;28;20473;-51
2023/08/17 10:57:40;;;;;;;8.90;2.00;;;21.40;99.90;;;;;;5076224;28;20517;-50
2023/08/17 11:00:31;;;;;;;3.65;1.60;;;21.50;99.90;;;;;;5063059;28;20025;-49
2023/08/17 11:02:59;;;;;;;3.65;2.10;;;21.30;99.90;;;;;;5056087;28;20112;-50
2023/08/17 11:05:40;;;;;;;9.07;3.35;;;21.00;99.90;;;;;;5067575;28;20081;-51
2023/08/17 11:08:09;;;;;;;5.75;2.08;;;21.00;99.90;;;;;;5076061;28;20028;-49
2023/08/17 11:10:35;;;;;;;8.63;2.30;;;20.90;99.90;;;;;;5076063;28;20170;-60
2023/08/17 11:13:02;;;;;;;5.03;2.55;;;20.90;99.90;;;;;;5075725;28;20031;-50
2023/08/17 11:15:44;;;;;;;7.23;2.10;;;20.80;99.90;;;;;;5075626;28;20111;-53
2023/08/17 11:18:11;;;;;;;10.45;2.38;;;20.60;99.90;;;;;;5055888;28;20028;-53
2023/08/17 11:20:39;;;;;;;4.40;1.75;;;20.70;99.90;;;;;;5055669;28;20016;-50
2023/08/17 11:23:09;;;;;;;8.43;2.15;;;20.60;99.90;;;;;;5072852;28;20106;-50
2023/08/17 11:25:36;;;;;;;4.00;2.35;;;20.70;99.90;;;;;;5075714;28;20036;-51
2023/08/17 11:28:02;;;;;;;3.70;1.83;;;20.90;99.90;;;;;;5075755;28;20147;-50
2023/08/17 11:30:29;;;;;;;6.10;3.03;;;21.10;99.90;;;;;;5066390;28;20021;-47
2023/08/17 11:32:56;;;;;;;4.68;2.17;;;21.20;99.90;;;;;;5061385;28;20492;-52
2023/08/17 11:35:22;;;;;;;6.22;2.58;;;21.10;99.90;;;;;;5075285;28;20032;-52
2023/08/17 11:37:49;;;;;;;11.77;2.97;;;21.10;99.90;;;;;;5075256;28;20504;-51
2023/08/17 11:40:15;;;;;;;7.25;2.47;;;21.10;99.90;;;;;;5075306;28;20046;-51
2023/08/17 11:42:42;;;;;;;6.35;1.90;;;21.10;99.90;;;;;;5074215;28;20436;-53
2023/08/17 11:45:11;;;;;;;;;;;21.10;99.90;;;;;;5075917;28;20025;-47
2023/08/17 11:47:41;;;;;;;6.47;1.83;;;21.00;99.90;;;;;;5074002;28;19995;-53
2023/08/17 11:50:09;;;;;;;7.13;2.55;;;21.00;99.90;;;;;;5069212;28;20021;-49
2023/08/17 11:52:38;;;;;;;8.77;3.30;;;20.90;99.90;;;;;;5072094;28;20036;-52
2023/08/17 11:55:05;;;;;;;8.85;3.05;;;20.90;99.90;;;;;;5072525;28;20032;-51
2023/08/17 11:57:32;;;;;;;7.82;2.35;;;21.00;99.90;;;;;;5072416;28;20108;-50
2023/08/17 11:59:59;;;;;;;4.87;1.63;;;21.10;99.90;;;;;;5072146;28;20028;-49
2023/08/17 12:02:26;;;;;;;6.80;2.95;;;21.20;99.90;;;;;;5059774;28;20292;-50
2023/08/17 12:04:53;;;;;;;5.95;2.40;;;21.10;99.90;;;;;;5054855;28;20029;-52
2023/08/17 12:07:21;;;;;;;6.47;2.20;;;21.00;99.90;;;;;;5059603;28;20498;-52
2023/08/17 12:09:47;;;;;;;3.67;2.35;;;20.90;99.90;;;;;;5072878;28;20095;-49
2023/08/17 12:12:17;;;;;;;4.38;2.15;;;21.00;99.90;;;;;;5072428;28;20029;-53
2023/08/17 12:14:43;;;;;;;5.22;2.50;;;21.00;99.90;;;;;;5074665;28;20039;-50
2023/08/17 12:17:17;;;;;;;4.38;2.25;;;21.10;99.90;;;;;;5071846;28;20033;-53
2023/08/17 12:19:43;;;;;;;4.22;2.22;;;21.10;99.90;;;;;;5074663;28;20103;-52
2023/08/17 12:22:12;;;;;;;6.28;2.45;;;21.20;99.90;;;;;;5074504;28;20095;-53
2023/08/17 12:24:38;;;;;;;5.90;2.60;;;21.30;99.90;;;;;;5073899;28;20029;-69
2023/08/17 12:27:05;;;;;;;3.92;2.33;;;21.20;99.90;;;;;;5072252;28;20503;-49
2023/08/17 12:29:31;;;;;;;9.02;2.38;;;20.90;99.90;;;;;;5072339;28;20031;-51
2023/08/17 12:32:04;;;;;;;6.50;2.13;;;20.80;99.90;;;;;;5072594;28;20032;-49
2023/08/17 12:34:31;;;;;;;7.60;2.40;;;20.90;99.90;;;;;;5070580;28;20024;-51
2023/08/17 12:36:56;;;;;;;4.32;2.60;;;21.00;99.90;;;;;;5050729;28;20535;-50
2023/08/17 12:39:22;;;;;;;5.30;2.08;;;21.10;99.90;;;;;;5068449;28;20401;-50
2023/08/17 12:41:47;;;;;;;6.55;2.92;;;21.10;99.90;;;;;;5065535;28;20021;-47
2023/08/17 12:44:13;;;;;;;5.88;2.95;;;21.00;99.90;;;;;;5067622;28;20027;-48
2023/08/17 12:46:40;;;;;;;5.00;2.35;;;21.00;99.90;;;;;;5067427;28;20028;-48
2023/08/17 12:49:06;;;;;;;9.32;2.58;;;20.90;99.90;;;;;;5066117;28;20469;-43